Lokaal brand risico:
CBI


Regionaal brand risico: Meer informatie


Weerstation
Sluispark-LeuvenLeuven-Sluispark



Nabijgelegen vliegvelden - METAR rapporten

   
EBBR - Wilsele bij Leuven
Gewijzigd: 24-04-2019 22:20
Helder    Wind: ZZO 14.8 km/h
Helder
Wind: Wind: ZZO 14.8 km/h
Temperatuur: 12°C
Dauwpunt: 9°C
Vochtigheid: 82%
Barometer: 1002 hPa
Zicht: meer dan 10 km
Bewolking: Helder
EBBR 242020Z 16008KT CAVOK 12/09 Q1002 NOSIG
EBAW - Antwerp
Gewijzigd: 24-04-2019 22:20
Wat regen mogelijk, Gedeeltelijk bewolkt    Wind: ZO 16.7 km/h
Wat regen mogelijk, Gedeeltelijk bewolkt
Wind: Wind: ZO 16.7 km/h
Temperatuur: 12°C
Dauwpunt: 10°C
Vochtigheid: 88%
Barometer: 1002 hPa
Bewolking: Gedeeltelijk bewolkt
Zicht: meer dan 10 km
Bewolking: Gedeeltelijk bewolkt 1463 m
EBAW 242020Z 14009KT 9999 -RA SCT048 12/10 Q1002 NOSIG
EBLG - Li├Ęge
Gewijzigd: 24-04-2019 22:20
Licht bewolkt    Wind: ZZO 18.5 km/h
Licht bewolkt
Wind: Wind: ZZO 18.5 km/h
Temperatuur: 11°C
Dauwpunt: 8°C
Vochtigheid: 82%
Barometer: 1004 hPa
Bewolking: Licht bewolkt
Zicht: meer dan 10 km
Bewolking: Licht bewolkt 1066.8 m
EBLG 242020Z 16010KT 9999 FEW035 11/08 Q1004 NOSIG
EBCV - Mons/Bergen
Gewijzigd: 24-04-2019 22:25
Grotendeels bewolkt    Wind: Zuiden 14.8 km/h
Grotendeels bewolkt
Wind: Wind: Zuiden 14.8 km/h
Temperatuur: 12°C
Dauwpunt: 7°C
Vochtigheid: 72%
Barometer: 1003 hPa
Bewolking: Grotendeels bewolkt
Zicht: meer dan 10 km
Bewolking: Gedeeltelijk bewolkt 5486.4 m,
Grotendeels bewolkt 6705.6 m
EBCV 242025Z AUTO 17008KT 9999 SCT180/// BKN220/// 12/07 Q1003 BLU
EHBK - Maastricht
Gewijzigd: 24-04-2019 22:25
Licht bewolkt    Wind: ZZO 13 km/h
Licht bewolkt
Wind: Wind: ZZO 13 km/h
Temperatuur: 11°C
Dauwpunt: 8°C
Vochtigheid: 82%
Barometer: 1004 hPa
Bewolking: Licht bewolkt
Zicht: meer dan 10 km
Bewolking: Licht bewolkt 457.2 m
EHBK 242025Z AUTO 16007KT 9999 FEW015CB 11/08 Q1004 REDZ NOSIG
ELLX - Luxemburg
Gewijzigd: 24-04-2019 22:20
Helder    Wind: ZO 14.8 km/h
Helder
Wind: Wind: ZO 14.8 km/h
Temperatuur: 8°C
Voelt als: 6°C
Dauwpunt: 7°C
Vochtigheid: 93%
Barometer: 1006 hPa
Zicht: meer dan 10 km
Bewolking: Helder
ELLX 242020Z 14008KT CAVOK 08/07 Q1006 NOSIG
EBOS - Oostende
Gewijzigd: 24-04-2019 22:20
Licht bewolkt    Wind: ZZO 11.1 km/h
Licht bewolkt
Wind: Wind: ZZO 11.1 km/h
Temperatuur: 11°C
Dauwpunt: 9°C
Vochtigheid: 88%
Barometer: 1001 hPa
Bewolking: Licht bewolkt
Zicht: meer dan 10 km
Bewolking: Licht bewolkt 914.4 m
EBOS 242020Z 16006KT 9999 FEW030 11/09 Q1001 NOSIG
  

Script ontwikkeld door  Saratoga-weather.org Aangepast voor de template door  Weerstation Leuven

U vindt ons ook hier:

UK Metoffice

WeatherCloud

European Weather Network

Weather Underground

Benelux Weather Network

AWEKAS

WeatherlinkIP

Het Weer Aktueel

Apparatuur in gebruik:

Weer-station
Davis VP2 weatherstation

Weer-programma
Meteobridge

Weer-computer
D-Link DIR-505

Webleverancier
Robohost

Davis VP2 weatherstation

Meteobridge

D-Link DIR-505

Robohost